sensor_id;sensor_type;location;lat;lon;timestamp;temperature;humidity
73141;SHT31;61339;50.558;4.696;2023-09-19T00:00:43;15.73;81.70
73141;SHT31;61339;50.558;4.696;2023-09-19T00:03:11;15.72;81.59
73141;SHT31;61339;50.558;4.696;2023-09-19T00:05:38;15.69;81.61
73141;SHT31;61339;50.558;4.696;2023-09-19T00:08:05;15.67;81.78
73141;SHT31;61339;50.558;4.696;2023-09-19T00:10:32;15.67;81.60
73141;SHT31;61339;50.558;4.696;2023-09-19T00:13:04;15.65;81.51
73141;SHT31;61339;50.558;4.696;2023-09-19T00:15:49;15.63;81.30
73141;SHT31;61339;50.558;4.696;2023-09-19T00:18:16;15.62;81.12
73141;SHT31;61339;50.558;4.696;2023-09-19T00:20:43;15.60;81.06
73141;SHT31;61339;50.558;4.696;2023-09-19T00:23:13;15.62;80.91
73141;SHT31;61339;50.558;4.696;2023-09-19T00:25:39;15.55;81.17
73141;SHT31;61339;50.558;4.696;2023-09-19T00:28:07;15.58;80.60
73141;SHT31;61339;50.558;4.696;2023-09-19T00:30:36;15.55;80.86
73141;SHT31;61339;50.558;4.696;2023-09-19T00:33:04;15.58;80.53
73141;SHT31;61339;50.558;4.696;2023-09-19T00:35:32;15.55;80.58
73141;SHT31;61339;50.558;4.696;2023-09-19T00:37:59;15.52;80.51
73141;SHT31;61339;50.558;4.696;2023-09-19T00:40:24;15.46;80.43
73141;SHT31;61339;50.558;4.696;2023-09-19T00:42:51;15.42;80.44
73141;SHT31;61339;50.558;4.696;2023-09-19T00:45:18;15.41;80.45
73141;SHT31;61339;50.558;4.696;2023-09-19T00:47:45;15.39;80.49
73141;SHT31;61339;50.558;4.696;2023-09-19T00:50:22;15.32;80.55
73141;SHT31;61339;50.558;4.696;2023-09-19T00:52:49;15.34;80.52
73141;SHT31;61339;50.558;4.696;2023-09-19T00:55:15;15.32;80.38
73141;SHT31;61339;50.558;4.696;2023-09-19T00:57:42;15.32;80.28
73141;SHT31;61339;50.558;4.696;2023-09-19T01:00:09;15.25;80.21
73141;SHT31;61339;50.558;4.696;2023-09-19T01:02:47;15.24;80.19
73141;SHT31;61339;50.558;4.696;2023-09-19T01:05:13;15.19;80.34
73141;SHT31;61339;50.558;4.696;2023-09-19T01:07:39;15.17;80.03
73141;SHT31;61339;50.558;4.696;2023-09-19T01:10:10;15.21;80.02
73141;SHT31;61339;50.558;4.696;2023-09-19T01:15:40;15.11;80.00
73141;SHT31;61339;50.558;4.696;2023-09-19T01:29:26;15.02;79.86
73141;SHT31;61339;50.558;4.696;2023-09-19T01:32:03;15.02;79.99
73141;SHT31;61339;50.558;4.696;2023-09-19T01:34:49;14.98;80.32
73141;SHT31;61339;50.558;4.696;2023-09-19T01:37:19;14.98;80.36
73141;SHT31;61339;50.558;4.696;2023-09-19T01:39:48;14.94;80.55
73141;SHT31;61339;50.558;4.696;2023-09-19T01:48:19;14.84;81.18
73141;SHT31;61339;50.558;4.696;2023-09-19T01:51:07;14.87;81.14
73141;SHT31;61339;50.558;4.696;2023-09-19T01:54:03;14.84;81.41
73141;SHT31;61339;50.558;4.696;2023-09-19T01:56:37;14.80;81.58
73141;SHT31;61339;50.558;4.696;2023-09-19T01:59:25;14.76;81.56
73141;SHT31;61339;50.558;4.696;2023-09-19T02:01:54;14.80;81.30
73141;SHT31;61339;50.558;4.696;2023-09-19T02:04:20;14.77;81.08
73141;SHT31;61339;50.558;4.696;2023-09-19T02:06:45;14.77;81.00
73141;SHT31;61339;50.558;4.696;2023-09-19T02:09:13;14.73;81.17
73141;SHT31;61339;50.558;4.696;2023-09-19T02:11:40;14.73;80.93
73141;SHT31;61339;50.558;4.696;2023-09-19T02:14:07;14.70;80.85
73141;SHT31;61339;50.558;4.696;2023-09-19T02:16:34;14.74;80.31
73141;SHT31;61339;50.558;4.696;2023-09-19T02:19:00;14.69;80.66
73141;SHT31;61339;50.558;4.696;2023-09-19T02:21:25;14.71;80.07
73141;SHT31;61339;50.558;4.696;2023-09-19T02:23:55;14.71;79.86
73141;SHT31;61339;50.558;4.696;2023-09-19T02:26:20;14.66;80.04
73141;SHT31;61339;50.558;4.696;2023-09-19T02:28:46;14.70;79.70
73141;SHT31;61339;50.558;4.696;2023-09-19T02:31:11;14.69;79.71
73141;SHT31;61339;50.558;4.696;2023-09-19T02:33:37;14.67;79.67
73141;SHT31;61339;50.558;4.696;2023-09-19T02:36:03;14.69;79.72
73141;SHT31;61339;50.558;4.696;2023-09-19T02:38:32;14.67;79.47
73141;SHT31;61339;50.558;4.696;2023-09-19T02:40:57;14.74;79.41
73141;SHT31;61339;50.558;4.696;2023-09-19T02:43:23;14.74;79.49
73141;SHT31;61339;50.558;4.696;2023-09-19T02:45:49;14.77;79.45
73141;SHT31;61339;50.558;4.696;2023-09-19T02:48:15;14.80;79.37
73141;SHT31;61339;50.558;4.696;2023-09-19T02:50:42;14.85;79.59
73141;SHT31;61339;50.558;4.696;2023-09-19T02:53:07;14.81;79.85
73141;SHT31;61339;50.558;4.696;2023-09-19T02:55:32;14.74;80.30
73141;SHT31;61339;50.558;4.696;2023-09-19T02:57:59;14.73;80.71
73141;SHT31;61339;50.558;4.696;2023-09-19T03:00:26;14.69;81.28
73141;SHT31;61339;50.558;4.696;2023-09-19T03:02:55;14.70;81.63
73141;SHT31;61339;50.558;4.696;2023-09-19T03:05:22;14.71;81.72
73141;SHT31;61339;50.558;4.696;2023-09-19T03:07:48;14.76;81.85
73141;SHT31;61339;50.558;4.696;2023-09-19T03:10:20;14.77;81.92
73141;SHT31;61339;50.558;4.696;2023-09-19T03:12:49;14.83;81.86
73141;SHT31;61339;50.558;4.696;2023-09-19T03:15:15;14.84;81.94
73141;SHT31;61339;50.558;4.696;2023-09-19T03:17:45;14.84;81.95
73141;SHT31;61339;50.558;4.696;2023-09-19T03:20:14;14.83;82.02
73141;SHT31;61339;50.558;4.696;2023-09-19T03:22:45;14.79;82.23
73141;SHT31;61339;50.558;4.696;2023-09-19T03:25:11;14.69;82.57
73141;SHT31;61339;50.558;4.696;2023-09-19T03:27:37;14.63;82.80
73141;SHT31;61339;50.558;4.696;2023-09-19T03:30:04;14.56;83.14
73141;SHT31;61339;50.558;4.696;2023-09-19T03:32:37;14.50;83.31
73141;SHT31;61339;50.558;4.696;2023-09-19T03:35:08;14.46;83.50
73141;SHT31;61339;50.558;4.696;2023-09-19T03:37:40;14.49;83.57
73141;SHT31;61339;50.558;4.696;2023-09-19T03:40:06;14.46;83.57
73141;SHT31;61339;50.558;4.696;2023-09-19T03:42:32;14.43;83.70
73141;SHT31;61339;50.558;4.696;2023-09-19T03:44:58;14.37;83.87
73141;SHT31;61339;50.558;4.696;2023-09-19T03:47:24;14.32;84.02
73141;SHT31;61339;50.558;4.696;2023-09-19T03:49:51;14.34;83.97
73141;SHT31;61339;50.558;4.696;2023-09-19T03:52:18;14.36;83.99
73141;SHT31;61339;50.558;4.696;2023-09-19T03:54:44;14.36;83.80
73141;SHT31;61339;50.558;4.696;2023-09-19T03:57:09;14.37;83.54
73141;SHT31;61339;50.558;4.696;2023-09-19T03:59:35;14.37;83.59
73141;SHT31;61339;50.558;4.696;2023-09-19T04:02:01;14.30;83.79
73141;SHT31;61339;50.558;4.696;2023-09-19T04:04:27;14.29;83.77
73141;SHT31;61339;50.558;4.696;2023-09-19T04:06:54;14.30;83.81
73141;SHT31;61339;50.558;4.696;2023-09-19T04:09:19;14.23;84.00
73141;SHT31;61339;50.558;4.696;2023-09-19T04:11:45;14.21;83.85
73141;SHT31;61339;50.558;4.696;2023-09-19T04:14:10;14.21;83.97
73141;SHT31;61339;50.558;4.696;2023-09-19T04:16:36;14.19;84.03
73141;SHT31;61339;50.558;4.696;2023-09-19T04:19:01;14.16;84.10
73141;SHT31;61339;50.558;4.696;2023-09-19T04:21:28;14.18;84.13
73141;SHT31;61339;50.558;4.696;2023-09-19T04:23:54;14.08;84.42
73141;SHT31;61339;50.558;4.696;2023-09-19T04:26:19;14.09;84.42
73141;SHT31;61339;50.558;4.696;2023-09-19T04:28:45;14.02;84.48
73141;SHT31;61339;50.558;4.696;2023-09-19T04:31:11;14.05;84.32
73141;SHT31;61339;50.558;4.696;2023-09-19T04:33:37;14.09;84.24
73141;SHT31;61339;50.558;4.696;2023-09-19T04:36:02;14.12;84.14
73141;SHT31;61339;50.558;4.696;2023-09-19T04:38:33;14.19;83.86
73141;SHT31;61339;50.558;4.696;2023-09-19T04:40:59;14.23;83.66
73141;SHT31;61339;50.558;4.696;2023-09-19T04:43:25;14.32;83.45
73141;SHT31;61339;50.558;4.696;2023-09-19T04:45:51;14.33;83.34
73141;SHT31;61339;50.558;4.696;2023-09-19T04:48:21;14.37;83.05
73141;SHT31;61339;50.558;4.696;2023-09-19T04:50:48;14.40;83.07
73141;SHT31;61339;50.558;4.696;2023-09-19T04:53:14;14.43;82.93
73141;SHT31;61339;50.558;4.696;2023-09-19T04:55:40;14.46;82.80
73141;SHT31;61339;50.558;4.696;2023-09-19T06:17:20;14.09;83.52
73141;SHT31;61339;50.558;4.696;2023-09-19T06:19:47;14.11;83.89
73141;SHT31;61339;50.558;4.696;2023-09-19T06:22:15;14.15;83.44
73141;SHT31;61339;50.558;4.696;2023-09-19T06:24:43;14.23;83.22
73141;SHT31;61339;50.558;4.696;2023-09-19T06:27:08;14.29;82.88
73141;SHT31;61339;50.558;4.696;2023-09-19T06:29:34;14.34;82.84
73141;SHT31;61339;50.558;4.696;2023-09-19T06:31:59;14.42;82.75
73141;SHT31;61339;50.558;4.696;2023-09-19T06:34:24;14.47;82.53
73141;SHT31;61339;50.558;4.696;2023-09-19T06:36:51;14.55;82.16
73141;SHT31;61339;50.558;4.696;2023-09-19T06:39:19;14.60;81.91
73141;SHT31;61339;50.558;4.696;2023-09-19T06:41:47;14.61;81.60
73141;SHT31;61339;50.558;4.696;2023-09-19T06:44:13;14.67;81.41
73141;SHT31;61339;50.558;4.696;2023-09-19T06:46:39;14.70;81.09
73141;SHT31;61339;50.558;4.696;2023-09-19T06:49:08;14.80;80.97
73141;SHT31;61339;50.558;4.696;2023-09-19T06:51:36;14.87;80.79
73141;SHT31;61339;50.558;4.696;2023-09-19T06:54:04;14.88;80.47
73141;SHT31;61339;50.558;4.696;2023-09-19T06:56:30;14.91;80.54
73141;SHT31;61339;50.558;4.696;2023-09-19T06:58:57;15.05;80.11
73141;SHT31;61339;50.558;4.696;2023-09-19T07:01:22;15.18;79.59
73141;SHT31;61339;50.558;4.696;2023-09-19T07:03:48;15.25;79.17
73141;SHT31;61339;50.558;4.696;2023-09-19T07:06:14;15.29;79.23
73141;SHT31;61339;50.558;4.696;2023-09-19T07:08:42;15.35;78.89
73141;SHT31;61339;50.558;4.696;2023-09-19T07:11:08;15.48;78.44
73141;SHT31;61339;50.558;4.696;2023-09-19T07:13:34;15.79;77.72
73141;SHT31;61339;50.558;4.696;2023-09-19T07:16:03;16.14;76.62
73141;SHT31;61339;50.558;4.696;2023-09-19T07:18:29;16.37;75.56
73141;SHT31;61339;50.558;4.696;2023-09-19T07:20:57;16.64;74.37
73141;SHT31;61339;50.558;4.696;2023-09-19T07:23:26;16.73;74.09
73141;SHT31;61339;50.558;4.696;2023-09-19T07:25:52;16.75;73.86
73141;SHT31;61339;50.558;4.696;2023-09-19T07:28:17;16.76;73.68
73141;SHT31;61339;50.558;4.696;2023-09-19T07:30:43;16.95;73.11
73141;SHT31;61339;50.558;4.696;2023-09-19T07:33:09;17.15;72.23
73141;SHT31;61339;50.558;4.696;2023-09-19T07:35:38;17.47;71.62
73141;SHT31;61339;50.558;4.696;2023-09-19T07:38:07;17.63;70.17
73141;SHT31;61339;50.558;4.696;2023-09-19T07:40:33;17.63;70.33
73141;SHT31;61339;50.558;4.696;2023-09-19T07:42:59;18.09;69.25
73141;SHT31;61339;50.558;4.696;2023-09-19T07:45:28;18.26;68.56
73141;SHT31;61339;50.558;4.696;2023-09-19T07:47:55;18.49;68.04
73141;SHT31;61339;50.558;4.696;2023-09-19T07:50:21;18.76;66.46
73141;SHT31;61339;50.558;4.696;2023-09-19T07:52:48;18.61;66.62
73141;SHT31;61339;50.558;4.696;2023-09-19T07:55:16;18.56;66.75
73141;SHT31;61339;50.558;4.696;2023-09-19T07:57:45;18.76;66.03
73141;SHT31;61339;50.558;4.696;2023-09-19T08:00:12;19.10;64.96
73141;SHT31;61339;50.558;4.696;2023-09-19T08:02:39;19.34;64.50
73141;SHT31;61339;50.558;4.696;2023-09-19T08:05:11;19.54;64.03
73141;SHT31;61339;50.558;4.696;2023-09-19T08:07:38;19.52;63.49
73141;SHT31;61339;50.558;4.696;2023-09-19T08:10:05;19.59;63.32
73141;SHT31;61339;50.558;4.696;2023-09-19T08:12:33;19.73;62.92
73141;SHT31;61339;50.558;4.696;2023-09-19T08:15:04;20.03;61.76
73141;SHT31;61339;50.558;4.696;2023-09-19T08:17:34;20.33;60.45
73141;SHT31;61339;50.558;4.696;2023-09-19T08:20:00;20.61;59.94
73141;SHT31;61339;50.558;4.696;2023-09-19T08:22:26;20.74;59.23
73141;SHT31;61339;50.558;4.696;2023-09-19T08:24:52;20.71;59.35
73141;SHT31;61339;50.558;4.696;2023-09-19T08:27:18;20.63;59.45
73141;SHT31;61339;50.558;4.696;2023-09-19T08:29:44;20.59;58.67
73141;SHT31;61339;50.558;4.696;2023-09-19T08:32:10;20.78;58.25
73141;SHT31;61339;50.558;4.696;2023-09-19T08:34:36;20.71;58.43
73141;SHT31;61339;50.558;4.696;2023-09-19T08:37:03;20.59;58.57
73141;SHT31;61339;50.558;4.696;2023-09-19T08:39:28;20.54;58.86
73141;SHT31;61339;50.558;4.696;2023-09-19T08:41:59;20.52;59.04
73141;SHT31;61339;50.558;4.696;2023-09-19T08:44:25;20.49;59.56
73141;SHT31;61339;50.558;4.696;2023-09-19T08:46:54;20.38;59.43
73141;SHT31;61339;50.558;4.696;2023-09-19T08:50:01;20.63;58.34
73141;SHT31;61339;50.558;4.696;2023-09-19T08:52:37;20.64;58.32
73141;SHT31;61339;50.558;4.696;2023-09-19T08:55:06;21.10;57.27
73141;SHT31;61339;50.558;4.696;2023-09-19T08:57:36;21.60;55.52
73141;SHT31;61339;50.558;4.696;2023-09-19T09:00:04;21.88;54.94
73141;SHT31;61339;50.558;4.696;2023-09-19T09:02:40;22.11;53.92
73141;SHT31;61339;50.558;4.696;2023-09-19T09:05:08;22.46;53.36
73141;SHT31;61339;50.558;4.696;2023-09-19T09:07:36;22.56;52.42
73141;SHT31;61339;50.558;4.696;2023-09-19T09:10:04;22.74;52.29
73141;SHT31;61339;50.558;4.696;2023-09-19T09:12:30;22.69;52.60
73141;SHT31;61339;50.558;4.696;2023-09-19T09:14:55;23.06;51.26
73141;SHT31;61339;50.558;4.696;2023-09-19T09:17:26;22.97;50.86
73141;SHT31;61339;50.558;4.696;2023-09-19T09:19:54;23.11;50.48
73141;SHT31;61339;50.558;4.696;2023-09-19T09:22:19;23.24;49.46
73141;SHT31;61339;50.558;4.696;2023-09-19T09:24:56;23.28;49.67
73141;SHT31;61339;50.558;4.696;2023-09-19T09:27:29;23.71;49.43
73141;SHT31;61339;50.558;4.696;2023-09-19T09:29:55;23.89;48.86
73141;SHT31;61339;50.558;4.696;2023-09-19T09:34:55;24.05;48.56
73141;SHT31;61339;50.558;4.696;2023-09-19T09:37:23;24.08;48.65
73141;SHT31;61339;50.558;4.696;2023-09-19T09:40:00;23.98;48.25
73141;SHT31;61339;50.558;4.696;2023-09-19T09:42:44;23.61;48.30
73141;SHT31;61339;50.558;4.696;2023-09-19T09:45:16;23.25;48.70
73141;SHT31;61339;50.558;4.696;2023-09-19T09:48:02;22.99;50.05
73141;SHT31;61339;50.558;4.696;2023-09-19T09:50:46;22.89;51.26
73141;SHT31;61339;50.558;4.696;2023-09-19T09:53:26;22.77;50.90
73141;SHT31;61339;50.558;4.696;2023-09-19T09:56:08;22.77;50.78
73141;SHT31;61339;50.558;4.696;2023-09-19T10:01:13;22.91;50.41
73141;SHT31;61339;50.558;4.696;2023-09-19T10:03:41;22.73;50.25
73141;SHT31;61339;50.558;4.696;2023-09-19T10:06:14;22.48;50.60
73141;SHT31;61339;50.558;4.696;2023-09-19T10:11:26;22.57;49.71
73141;SHT31;61339;50.558;4.696;2023-09-19T10:13:55;22.52;50.33
73141;SHT31;61339;50.558;4.696;2023-09-19T10:16:21;22.49;51.00
73141;SHT31;61339;50.558;4.696;2023-09-19T10:18:50;22.38;50.43
73141;SHT31;61339;50.558;4.696;2023-09-19T10:21:17;22.19;50.34
73141;SHT31;61339;50.558;4.696;2023-09-19T10:23:48;21.85;50.42
73141;SHT31;61339;50.558;4.696;2023-09-19T10:26:17;21.85;51.06
73141;SHT31;61339;50.558;4.696;2023-09-19T10:28:46;21.91;51.48
73141;SHT31;61339;50.558;4.696;2023-09-19T10:31:19;21.84;51.94
73141;SHT31;61339;50.558;4.696;2023-09-19T10:33:47;21.85;52.32
73141;SHT31;61339;50.558;4.696;2023-09-19T10:36:15;21.78;52.93
73141;SHT31;61339;50.558;4.696;2023-09-19T10:38:43;21.63;52.44
73141;SHT31;61339;50.558;4.696;2023-09-19T10:41:14;21.77;52.16
73141;SHT31;61339;50.558;4.696;2023-09-19T10:43:42;22.02;52.03
73141;SHT31;61339;50.558;4.696;2023-09-19T10:46:10;22.06;51.68
73141;SHT31;61339;50.558;4.696;2023-09-19T10:48:37;22.29;51.16
73141;SHT31;61339;50.558;4.696;2023-09-19T10:56:25;24.47;46.27
73141;SHT31;61339;50.558;4.696;2023-09-19T10:59:05;25.46;44.10
73141;SHT31;61339;50.558;4.696;2023-09-19T11:01:45;25.88;43.19
73141;SHT31;61339;50.558;4.696;2023-09-19T11:04:36;25.30;44.26
73141;SHT31;61339;50.558;4.696;2023-09-19T11:07:11;24.72;45.30
73141;SHT31;61339;50.558;4.696;2023-09-19T11:09:53;25.42;44.58
73141;SHT31;61339;50.558;4.696;2023-09-19T11:14:56;26.38;42.46
73141;SHT31;61339;50.558;4.696;2023-09-19T11:17:32;26.55;42.05
73141;SHT31;61339;50.558;4.696;2023-09-19T11:33:21;26.09;42.44
73141;SHT31;61339;50.558;4.696;2023-09-19T11:43:53;27.55;39.36
73141;SHT31;61339;50.558;4.696;2023-09-19T11:46:24;27.65;38.94
73141;SHT31;61339;50.558;4.696;2023-09-19T11:48:51;27.64;39.15
73141;SHT31;61339;50.558;4.696;2023-09-19T11:51:21;28.44;38.36
73141;SHT31;61339;50.558;4.696;2023-09-19T11:53:56;28.53;37.88
73141;SHT31;61339;50.558;4.696;2023-09-19T11:56:23;28.08;38.12
73141;SHT31;61339;50.558;4.696;2023-09-19T11:58:51;27.58;39.07
73141;SHT31;61339;50.558;4.696;2023-09-19T12:03:55;30.00;35.22
73141;SHT31;61339;50.558;4.696;2023-09-19T12:06:25;28.87;36.84
73141;SHT31;61339;50.558;4.696;2023-09-19T12:08:51;27.59;39.05
73141;SHT31;61339;50.558;4.696;2023-09-19T12:11:20;26.35;41.73
73141;SHT31;61339;50.558;4.696;2023-09-19T12:13:47;26.21;42.23
73141;SHT31;61339;50.558;4.696;2023-09-19T12:16:19;25.63;43.37
73141;SHT31;61339;50.558;4.696;2023-09-19T12:18:47;25.42;44.26
73141;SHT31;61339;50.558;4.696;2023-09-19T12:21:28;24.57;45.54
73141;SHT31;61339;50.558;4.696;2023-09-19T12:24:16;24.43;46.58
73141;SHT31;61339;50.558;4.696;2023-09-19T12:26:46;26.02;43.95
73141;SHT31;61339;50.558;4.696;2023-09-19T12:29:19;27.71;40.51
73141;SHT31;61339;50.558;4.696;2023-09-19T12:34:23;27.40;39.80
73141;SHT31;61339;50.558;4.696;2023-09-19T12:36:48;26.20;42.07
73141;SHT31;61339;50.558;4.696;2023-09-19T12:39:26;25.96;43.03
73141;SHT31;61339;50.558;4.696;2023-09-19T12:41:52;25.88;43.88
73141;SHT31;61339;50.558;4.696;2023-09-19T12:44:19;25.40;44.86
73141;SHT31;61339;50.558;4.696;2023-09-19T12:46:44;24.92;46.27
73141;SHT31;61339;50.558;4.696;2023-09-19T12:49:17;24.29;46.45
73141;SHT31;61339;50.558;4.696;2023-09-19T12:51:43;24.21;47.01
73141;SHT31;61339;50.558;4.696;2023-09-19T12:54:09;23.72;48.17
73141;SHT31;61339;50.558;4.696;2023-09-19T12:56:43;23.10;49.29
73141;SHT31;61339;50.558;4.696;2023-09-19T12:59:12;22.79;50.41
73141;SHT31;61339;50.558;4.696;2023-09-19T13:01:39;22.62;50.92
73141;SHT31;61339;50.558;4.696;2023-09-19T13:04:20;22.31;51.46
73141;SHT31;61339;50.558;4.696;2023-09-19T13:06:53;22.26;51.42
73141;SHT31;61339;50.558;4.696;2023-09-19T13:09:22;22.00;51.81
73141;SHT31;61339;50.558;4.696;2023-09-19T13:11:50;21.85;52.50
73141;SHT31;61339;50.558;4.696;2023-09-19T13:14:21;21.84;52.84
73141;SHT31;61339;50.558;4.696;2023-09-19T13:17:07;21.93;52.90
73141;SHT31;61339;50.558;4.696;2023-09-19T13:19:48;21.94;52.74
73141;SHT31;61339;50.558;4.696;2023-09-19T13:25:22;22.14;53.18
73141;SHT31;61339;50.558;4.696;2023-09-19T13:27:52;22.45;52.62
73141;SHT31;61339;50.558;4.696;2023-09-19T13:30:20;22.74;51.82
73141;SHT31;61339;50.558;4.696;2023-09-19T13:32:45;22.69;52.04
73141;SHT31;61339;50.558;4.696;2023-09-19T13:35:13;22.63;52.42
73141;SHT31;61339;50.558;4.696;2023-09-19T13:37:39;22.60;52.17
73141;SHT31;61339;50.558;4.696;2023-09-19T13:40:09;22.84;50.82
73141;SHT31;61339;50.558;4.696;2023-09-19T13:42:39;22.62;51.70
73141;SHT31;61339;50.558;4.696;2023-09-19T13:45:06;22.52;52.32
73141;SHT31;61339;50.558;4.696;2023-09-19T13:47:32;22.29;52.25
73141;SHT31;61339;50.558;4.696;2023-09-19T13:49:59;21.93;53.21
73141;SHT31;61339;50.558;4.696;2023-09-19T13:52:26;21.71;54.08
73141;SHT31;61339;50.558;4.696;2023-09-19T13:54:57;21.47;54.32
73141;SHT31;61339;50.558;4.696;2023-09-19T13:57:23;21.33;54.95
73141;SHT31;61339;50.558;4.696;2023-09-19T13:59:49;21.25;55.32
73141;SHT31;61339;50.558;4.696;2023-09-19T14:02:14;21.15;55.46
73141;SHT31;61339;50.558;4.696;2023-09-19T14:04:40;21.19;55.47
73141;SHT31;61339;50.558;4.696;2023-09-19T14:07:06;21.13;55.51
73141;SHT31;61339;50.558;4.696;2023-09-19T14:09:32;21.10;55.21
73141;SHT31;61339;50.558;4.696;2023-09-19T14:11:59;20.99;55.88
73141;SHT31;61339;50.558;4.696;2023-09-19T14:14:24;20.95;56.35
73141;SHT31;61339;50.558;4.696;2023-09-19T14:16:50;21.05;56.25
73141;SHT31;61339;50.558;4.696;2023-09-19T14:19:17;21.09;56.09
73141;SHT31;61339;50.558;4.696;2023-09-19T14:21:43;21.10;55.87
73141;SHT31;61339;50.558;4.696;2023-09-19T14:24:08;21.06;55.79
73141;SHT31;61339;50.558;4.696;2023-09-19T14:26:38;21.10;55.94
73141;SHT31;61339;50.558;4.696;2023-09-19T14:29:03;21.09;55.88
73141;SHT31;61339;50.558;4.696;2023-09-19T14:31:29;20.99;56.05
73141;SHT31;61339;50.558;4.696;2023-09-19T14:33:55;20.91;56.26
73141;SHT31;61339;50.558;4.696;2023-09-19T14:36:22;20.98;56.65
73141;SHT31;61339;50.558;4.696;2023-09-19T14:38:52;21.12;56.52
73141;SHT31;61339;50.558;4.696;2023-09-19T14:41:24;21.09;56.39
73141;SHT31;61339;50.558;4.696;2023-09-19T14:43:51;21.02;56.48
73141;SHT31;61339;50.558;4.696;2023-09-19T14:46:17;21.03;56.72
73141;SHT31;61339;50.558;4.696;2023-09-19T14:48:44;21.02;57.25
73141;SHT31;61339;50.558;4.696;2023-09-19T14:51:12;21.16;57.21
73141;SHT31;61339;50.558;4.696;2023-09-19T14:53:39;21.37;56.77
73141;SHT31;61339;50.558;4.696;2023-09-19T14:56:07;21.47;56.57
73141;SHT31;61339;50.558;4.696;2023-09-19T14:58:34;21.49;56.66
73141;SHT31;61339;50.558;4.696;2023-09-19T15:01:11;21.33;56.54
73141;SHT31;61339;50.558;4.696;2023-09-19T15:03:38;21.19;56.37
73141;SHT31;61339;50.558;4.696;2023-09-19T15:06:09;21.15;57.08
73141;SHT31;61339;50.558;4.696;2023-09-19T15:08:38;21.26;57.08
73141;SHT31;61339;50.558;4.696;2023-09-19T15:11:04;21.27;56.36
73141;SHT31;61339;50.558;4.696;2023-09-19T15:13:33;21.30;56.92
73141;SHT31;61339;50.558;4.696;2023-09-19T15:16:05;21.13;56.73
73141;SHT31;61339;50.558;4.696;2023-09-19T15:18:34;21.13;57.02
73141;SHT31;61339;50.558;4.696;2023-09-19T15:21:06;21.00;56.97
73141;SHT31;61339;50.558;4.696;2023-09-19T15:23:32;20.86;57.33
73141;SHT31;61339;50.558;4.696;2023-09-19T15:26:00;20.74;57.65
73141;SHT31;61339;50.558;4.696;2023-09-19T15:28:27;20.71;58.22
73141;SHT31;61339;50.558;4.696;2023-09-19T15:31:09;20.58;58.72
73141;SHT31;61339;50.558;4.696;2023-09-19T15:33:35;20.54;58.95
73141;SHT31;61339;50.558;4.696;2023-09-19T15:36:05;20.51;59.18
73141;SHT31;61339;50.558;4.696;2023-09-19T15:38:31;20.48;59.19
73141;SHT31;61339;50.558;4.696;2023-09-19T15:40:58;20.43;58.89
73141;SHT31;61339;50.558;4.696;2023-09-19T15:43:23;20.40;59.33
73141;SHT31;61339;50.558;4.696;2023-09-19T15:45:49;20.35;59.95
73141;SHT31;61339;50.558;4.696;2023-09-19T15:48:17;20.27;59.44
73141;SHT31;61339;50.558;4.696;2023-09-19T15:50:43;20.28;59.02
73141;SHT31;61339;50.558;4.696;2023-09-19T15:53:10;20.33;58.91
73141;SHT31;61339;50.558;4.696;2023-09-19T15:55:40;20.44;58.93
73141;SHT31;61339;50.558;4.696;2023-09-19T15:58:06;20.44;58.84
73141;SHT31;61339;50.558;4.696;2023-09-19T16:00:32;20.40;59.00
73141;SHT31;61339;50.558;4.696;2023-09-19T16:03:01;20.38;59.16
73141;SHT31;61339;50.558;4.696;2023-09-19T16:05:27;20.33;59.61
73141;SHT31;61339;50.558;4.696;2023-09-19T16:07:53;20.17;59.66
73141;SHT31;61339;50.558;4.696;2023-09-19T16:10:18;20.10;59.79
73141;SHT31;61339;50.558;4.696;2023-09-19T16:12:44;20.00;60.05
73141;SHT31;61339;50.558;4.696;2023-09-19T16:15:09;19.97;60.14
73141;SHT31;61339;50.558;4.696;2023-09-19T16:17:39;19.98;60.48
73141;SHT31;61339;50.558;4.696;2023-09-19T16:20:05;19.98;60.19
73141;SHT31;61339;50.558;4.696;2023-09-19T16:22:38;20.04;59.85
73141;SHT31;61339;50.558;4.696;2023-09-19T16:25:04;19.98;59.85
73141;SHT31;61339;50.558;4.696;2023-09-19T16:27:29;19.83;60.37
73141;SHT31;61339;50.558;4.696;2023-09-19T16:29:55;19.73;60.76
73141;SHT31;61339;50.558;4.696;2023-09-19T16:32:20;19.61;61.03
73141;SHT31;61339;50.558;4.696;2023-09-19T16:34:46;19.62;61.17
73141;SHT31;61339;50.558;4.696;2023-09-19T16:37:11;19.56;61.18
73141;SHT31;61339;50.558;4.696;2023-09-19T16:39:39;19.51;61.45
73141;SHT31;61339;50.558;4.696;2023-09-19T16:42:05;19.49;61.54
73141;SHT31;61339;50.558;4.696;2023-09-19T16:44:32;19.52;61.76
73141;SHT31;61339;50.558;4.696;2023-09-19T16:46:58;19.46;61.84
73141;SHT31;61339;50.558;4.696;2023-09-19T16:49:23;19.46;61.96
73141;SHT31;61339;50.558;4.696;2023-09-19T16:51:50;19.45;62.07
73141;SHT31;61339;50.558;4.696;2023-09-19T16:54:15;19.44;62.36
73141;SHT31;61339;50.558;4.696;2023-09-19T16:56:40;19.41;62.14
73141;SHT31;61339;50.558;4.696;2023-09-19T16:59:06;19.41;62.40
73141;SHT31;61339;50.558;4.696;2023-09-19T17:01:31;19.36;62.60
73141;SHT31;61339;50.558;4.696;2023-09-19T17:03:58;19.34;62.42
73141;SHT31;61339;50.558;4.696;2023-09-19T17:06:24;19.29;62.40
73141;SHT31;61339;50.558;4.696;2023-09-19T17:08:51;19.28;62.34
73141;SHT31;61339;50.558;4.696;2023-09-19T17:11:17;19.22;65.24
73141;SHT31;61339;50.558;4.696;2023-09-19T17:13:44;19.03;69.04
73141;SHT31;61339;50.558;4.696;2023-09-19T17:16:13;18.88;67.72
73141;SHT31;61339;50.558;4.696;2023-09-19T17:18:45;18.76;66.63
73141;SHT31;61339;50.558;4.696;2023-09-19T17:21:11;18.76;66.32
73141;SHT31;61339;50.558;4.696;2023-09-19T17:23:38;18.68;66.52
73141;SHT31;61339;50.558;4.696;2023-09-19T17:26:09;18.70;66.77
73141;SHT31;61339;50.558;4.696;2023-09-19T17:28:38;18.66;66.06
73141;SHT31;61339;50.558;4.696;2023-09-19T17:33:43;18.63;66.40
73141;SHT31;61339;50.558;4.696;2023-09-19T17:36:15;18.64;66.31
73141;SHT31;61339;50.558;4.696;2023-09-19T17:38:42;18.67;65.48
73141;SHT31;61339;50.558;4.696;2023-09-19T17:41:08;18.64;65.93
73141;SHT31;61339;50.558;4.696;2023-09-19T17:43:35;18.64;65.86
73141;SHT31;61339;50.558;4.696;2023-09-19T17:46:07;18.61;65.99
73141;SHT31;61339;50.558;4.696;2023-09-19T17:48:41;18.61;65.69
73141;SHT31;61339;50.558;4.696;2023-09-19T17:51:07;18.56;65.69
73141;SHT31;61339;50.558;4.696;2023-09-19T17:53:35;18.56;65.63
73141;SHT31;61339;50.558;4.696;2023-09-19T17:56:02;18.53;65.77
73141;SHT31;61339;50.558;4.696;2023-09-19T17:58:29;18.50;65.74
73141;SHT31;61339;50.558;4.696;2023-09-19T18:00:55;18.47;65.75
73141;SHT31;61339;50.558;4.696;2023-09-19T18:03:22;18.49;65.78
73141;SHT31;61339;50.558;4.696;2023-09-19T18:05:53;18.45;65.87